Time;durP1;ratioP1;P1;durP2;ratioP2;P2;SDS_P1;SDS_P2;PMS_P1;PMS_P2;Temp;Humidity;BMP_temperature;BMP_pressure;BME280_temperature;BME280_humidity;BME280_pressure;Samples;Min_cycle;Max_cycle;Signal;HPM_P1;HPM_P2
2023/09/24 00:02:19;;;;;;;4.45;2.20;;;;;;;;;;6276663;28;20049;-78
2023/09/24 00:05:23;;;;;;;4.10;2.10;;;;;;;;;;6276165;28;20312;-77
2023/09/24 00:08:24;;;;;;;2.45;1.60;;;;;;;;;;6276910;28;20057;-79
2023/09/24 00:11:26;;;;;;;5.32;1.50;;;;;;;;;;6274699;28;20049;-77
2023/09/24 00:14:30;;;;;;;2.53;1.40;;;;;;;;;;6276657;28;20360;-77
2023/09/24 00:17:32;;;;;;;3.00;1.50;;;;;;;;;;6270009;28;20057;-76
2023/09/24 00:20:35;;;;;;;4.43;1.48;;;;;;;;;;6254736;28;20060;-78
2023/09/24 00:23:37;;;;;;;3.05;1.40;;;;;;;;;;6253027;28;20257;-77
2023/09/24 00:26:39;;;;;;;2.65;1.58;;;;;;;;;;6252621;28;20084;-77
2023/09/24 00:29:41;;;;;;;5.10;1.42;;;;;;;;;;6254577;28;20103;-77
2023/09/24 00:32:43;;;;;;;4.53;1.40;;;;;;;;;;6259754;28;20052;-78
2023/09/24 00:35:47;;;;;;;2.97;1.65;;;;;;;;;;6252455;28;20109;-78
2023/09/24 00:38:49;;;;;;;4.28;1.52;;;;;;;;;;6251668;28;20099;-77
2023/09/24 00:41:51;;;;;;;4.13;2.25;;;;;;;;;;6249268;28;20072;-76
2023/09/24 00:44:53;;;;;;;3.15;1.70;;;;;;;;;;6253865;28;20053;-77
2023/09/24 00:47:56;;;;;;;3.10;1.48;;;;;;;;;;6252991;28;20057;-77
2023/09/24 00:51:02;;;;;;;2.95;1.50;;;;;;;;;;6252281;28;20057;-77
2023/09/24 00:54:04;;;;;;;2.58;1.33;;;;;;;;;;6249702;28;20403;-77
2023/09/24 00:57:07;;;;;;;2.25;1.40;;;;;;;;;;6251787;28;20128;-77
2023/09/24 01:00:11;;;;;;;2.92;1.50;;;;;;;;;;6250529;28;20322;-77
2023/09/24 01:03:14;;;;;;;2.13;1.05;;;;;;;;;;6251916;28;20057;-76
2023/09/24 01:06:18;;;;;;;4.00;1.20;;;;;;;;;;6254331;28;20322;-77
2023/09/24 01:12:55;;;;;;;1.83;1.20;;;;;;;;;;6262733;28;20284;-76
2023/09/24 01:15:58;;;;;;;2.15;1.20;;;;;;;;;;6253659;28;20056;-77
2023/09/24 01:19:00;;;;;;;6.05;1.88;;;;;;;;;;6277279;28;20045;-77
2023/09/24 01:22:05;;;;;;;2.75;1.67;;;;;;;;;;6276271;28;20044;-77
2023/09/24 01:25:07;;;;;;;3.75;1.30;;;;;;;;;;6274575;28;20071;-76
2023/09/24 01:28:10;;;;;;;3.28;1.60;;;;;;;;;;6276122;28;20048;-77
2023/09/24 01:31:15;;;;;;;2.42;1.30;;;;;;;;;;6274955;28;20072;-76
2023/09/24 01:34:18;;;;;;;3.30;1.40;;;;;;;;;;6272063;28;20116;-76
2023/09/24 01:37:27;;;;;;;3.20;1.45;;;;;;;;;;6275828;28;20116;-80
2023/09/24 01:41:30;;;;;;;2.40;1.45;;;;;;;;;;6270275;28;20199;-76
2023/09/24 01:44:38;;;;;;;4.20;1.70;;;;;;;;;;6237143;28;20160;-78
2023/09/24 01:47:40;;;;;;;4.07;1.50;;;;;;;;;;6248958;28;20056;-78
2023/09/24 01:50:42;;;;;;;2.60;1.48;;;;;;;;;;6247729;28;20345;-79
2023/09/24 01:53:45;;;;;;;3.42;1.50;;;;;;;;;;6246585;28;20104;-77
2023/09/24 01:56:47;;;;;;;3.33;1.83;;;;;;;;;;6245185;28;20246;-76
2023/09/24 01:59:49;;;;;;;2.95;1.55;;;;;;;;;;6238493;28;20109;-78
2023/09/24 02:02:51;;;;;;;2.50;1.52;;;;;;;;;;6223805;28;20096;-77
2023/09/24 02:05:53;;;;;;;3.15;1.63;;;;;;;;;;6213061;28;20081;-77
2023/09/24 02:08:56;;;;;;;3.53;1.70;;;;;;;;;;6217884;28;20057;-77
2023/09/24 02:11:58;;;;;;;3.03;1.80;;;;;;;;;;6233183;28;20073;-77
2023/09/24 02:15:00;;;;;;;4.07;1.60;;;;;;;;;;6203257;28;20126;-77
2023/09/24 02:18:05;;;;;;;2.53;1.50;;;;;;;;;;6222438;28;20676;-77
2023/09/24 02:21:14;;;;;;;4.68;2.00;;;;;;;;;;6256991;28;20064;-77
2023/09/24 02:24:18;;;;;;;2.88;1.60;;;;;;;;;;6254231;28;20249;-77
2023/09/24 02:27:20;;;;;;;3.65;2.08;;;;;;;;;;6255377;28;20045;-76
2023/09/24 02:30:23;;;;;;;3.70;2.05;;;;;;;;;;6258265;28;20249;-77
2023/09/24 02:33:25;;;;;;;3.23;1.97;;;;;;;;;;6253908;28;20060;-77
2023/09/24 02:36:27;;;;;;;3.50;1.70;;;;;;;;;;6247524;28;20048;-79
2023/09/24 02:39:30;;;;;;;3.22;1.50;;;;;;;;;;6255062;28;20357;-77
2023/09/24 02:42:32;;;;;;;2.42;1.52;;;;;;;;;;6253054;28;20050;-77
2023/09/24 02:46:02;;;;;;;4.93;2.05;;;;;;;;;;6253126;28;20049;-77
2023/09/24 02:56:19;;;;;;;3.75;1.83;;;;;;;;;;6229225;28;20285;-77
2023/09/24 02:59:21;;;;;;;4.32;1.90;;;;;;;;;;6252599;28;20053;-77
2023/09/24 03:02:23;;;;;;;5.82;1.98;;;;;;;;;;6254060;28;20073;-78
2023/09/24 03:05:26;;;;;;;3.70;1.50;;;;;;;;;;6254582;28;20053;-77
2023/09/24 03:08:27;;;;;;;2.55;1.50;;;;;;;;;;6254275;28;20295;-78
2023/09/24 03:11:31;;;;;;;3.30;1.60;;;;;;;;;;6253290;28;20121;-77
2023/09/24 03:14:33;;;;;;;3.75;1.70;;;;;;;;;;6258969;28;20112;-77
2023/09/24 03:17:35;;;;;;;3.90;1.60;;;;;;;;;;6279633;28;20107;-79
2023/09/24 03:20:37;;;;;;;3.38;1.63;;;;;;;;;;6280663;28;20124;-77
2023/09/24 03:23:39;;;;;;;3.65;1.80;;;;;;;;;;6278425;28;20052;-76
2023/09/24 03:26:59;;;;;;;3.17;1.75;;;;;;;;;;6278699;28;20048;-76
2023/09/24 03:30:01;;;;;;;2.55;1.73;;;;;;;;;;6275693;28;20094;-76
2023/09/24 03:33:03;;;;;;;2.95;1.70;;;;;;;;;;6270904;28;20049;-76
2023/09/24 03:36:07;;;;;;;2.65;1.70;;;;;;;;;;6246900;28;20057;-78
2023/09/24 03:39:09;;;;;;;3.60;2.15;;;;;;;;;;6256494;28;20049;-78
2023/09/24 03:42:16;;;;;;;4.10;2.03;;;;;;;;;;6254122;28;20053;-78
2023/09/24 03:45:23;;;;;;;4.20;2.17;;;;;;;;;;6257526;28;20053;-77
2023/09/24 03:53:00;;;;;;;;;;;;;;;;;;;;;
2023/09/24 04:03:28;;;;;;;4.15;1.75;;;;;;;;;;6217984;28;20053;-77
2023/09/24 04:06:33;;;;;;;3.42;2.03;;;;;;;;;;6213412;28;20053;-76
2023/09/24 04:09:35;;;;;;;1.98;1.33;;;;;;;;;;6221963;28;20154;-77
2023/09/24 04:12:37;;;;;;;3.10;1.38;;;;;;;;;;6219953;28;20073;-77
2023/09/24 04:15:51;;;;;;;2.58;1.50;;;;;;;;;;6225614;28;20054;-79
2023/09/24 04:18:53;;;;;;;3.42;1.60;;;;;;;;;;6223872;28;20130;-77
2023/09/24 04:21:56;;;;;;;3.22;1.20;;;;;;;;;;6239074;28;20096;-78
2023/09/24 04:24:58;;;;;;;2.25;1.13;;;;;;;;;;6249570;28;20049;-78
2023/09/24 04:28:00;;;;;;;2.50;1.50;;;;;;;;;;6250971;28;20119;-77
2023/09/24 04:31:10;;;;;;;2.90;1.58;;;;;;;;;;6242873;28;20118;-79
2023/09/24 04:34:32;;;;;;;2.97;1.50;;;;;;;;;;6266994;28;20052;-77
2023/09/24 04:40:56;;;;;;;2.42;1.30;;;;;;;;;;6272453;28;20098;-78
2023/09/24 04:43:58;;;;;;;3.25;1.52;;;;;;;;;;6276573;28;20156;-78
2023/09/24 04:48:01;;;;;;;2.33;1.30;;;;;;;;;;6271545;28;20066;-77
2023/09/24 04:54:59;;;;;;;3.85;1.42;;;;;;;;;;6183204;28;20050;-78
2023/09/24 04:58:00;;;;;;;;;;;;;;;;;;6184197;28;20065;-78
2023/09/24 05:01:21;;;;;;;3.95;1.60;;;;;;;;;;6194352;28;19918;-76
2023/09/24 05:07:50;;;;;;;2.88;1.65;;;;;;;;;;6068897;29;20153;-77
2023/09/24 05:18:34;;;;;;;4.05;1.60;;;;;;;;;;6049135;29;20056;-76
2023/09/24 05:25:29;;;;;;;3.60;1.80;;;;;;;;;;6014381;29;20053;-77
2023/09/24 05:32:33;;;;;;;2.83;1.42;;;;;;;;;;6063738;29;20372;-77
2023/09/24 05:40:15;;;;;;;;;;;;;;;;;;6050138;29;20063;-80
2023/09/24 05:43:44;;;;;;;4.35;1.65;;;;;;;;;;6072332;29;19950;-79
2023/09/24 06:02:27;;;;;;;3.22;1.27;;;;;;;;;;5995741;29;20250;-75
2023/09/24 06:05:40;;;;;;;2.78;1.60;;;;;;;;;;6040610;29;20060;-79
2023/09/24 06:08:57;;;;;;;3.95;1.45;;;;;;;;;;6058044;29;20065;-76
2023/09/24 06:23:06;;;;;;;2.10;1.23;;;;;;;;;;6034154;29;20398;-76
2023/09/24 06:26:09;;;;;;;5.43;1.42;;;;;;;;;;6035900;29;20053;-77
2023/09/24 06:32:57;;;;;;;2.97;1.42;;;;;;;;;;5975223;29;20258;-77
2023/09/24 06:36:02;;;;;;;2.08;1.10;;;;;;;;;;6013907;29;20102;-76
2023/09/24 06:39:08;;;;;;;1.73;0.70;;;;;;;;;;6038905;29;20437;-77
2023/09/24 06:42:09;;;;;;;2.25;0.90;;;;;;;;;;6082993;29;20063;-77
2023/09/24 06:45:11;;;;;;;1.83;1.10;;;;;;;;;;6088671;28;20059;-76
2023/09/24 06:48:15;;;;;;;3.15;1.15;;;;;;;;;;6203006;28;20046;-77
2023/09/24 06:51:16;;;;;;;2.50;0.95;;;;;;;;;;6204020;28;20281;-77
2023/09/24 06:54:18;;;;;;;2.70;1.23;;;;;;;;;;6203489;28;20445;-77
2023/09/24 06:57:20;;;;;;;1.73;0.90;;;;;;;;;;6220492;28;20269;-77
2023/09/24 07:00:22;;;;;;;1.55;0.93;;;;;;;;;;6226659;28;20049;-78
2023/09/24 07:03:25;;;;;;;1.20;0.55;;;;;;;;;;6230174;28;20057;-77
2023/09/24 07:06:27;;;;;;;1.70;0.90;;;;;;;;;;6255587;28;20041;-78
2023/09/24 07:09:29;;;;;;;2.92;0.90;;;;;;;;;;6241119;28;20072;-77
2023/09/24 07:12:31;;;;;;;3.58;1.20;;;;;;;;;;6230404;28;20634;-75
2023/09/24 07:15:33;;;;;;;3.40;1.10;;;;;;;;;;6233773;28;20333;-79
2023/09/24 07:18:36;;;;;;;2.20;0.85;;;;;;;;;;6254096;28;20057;-77
2023/09/24 07:21:38;;;;;;;1.63;0.80;;;;;;;;;;6269688;28;20099;-78
2023/09/24 07:24:40;;;;;;;4.25;2.00;;;;;;;;;;6255687;28;20049;-77
2023/09/24 07:27:42;;;;;;;2.17;1.20;;;;;;;;;;6252599;28;20061;-78
2023/09/24 07:30:44;;;;;;;3.92;1.50;;;;;;;;;;6255078;28;20068;-79
2023/09/24 07:33:47;;;;;;;3.10;1.95;;;;;;;;;;6254081;28;20065;-77
2023/09/24 07:36:49;;;;;;;4.57;2.55;;;;;;;;;;6251236;28;20128;-77
2023/09/24 07:39:51;;;;;;;5.28;2.50;;;;;;;;;;6252177;28;20049;-77
2023/09/24 07:42:53;;;;;;;4.35;2.50;;;;;;;;;;6255774;28;20041;-79
2023/09/24 07:45:54;;;;;;;6.22;1.90;;;;;;;;;;6277280;28;20135;-79
2023/09/24 07:48:58;;;;;;;4.90;2.40;;;;;;;;;;6275399;28;20059;-79
2023/09/24 07:52:00;;;;;;;4.63;2.75;;;;;;;;;;6274300;28;20333;-80
2023/09/24 07:55:02;;;;;;;4.72;2.15;;;;;;;;;;6277169;28;20053;-80
2023/09/24 07:58:04;;;;;;;4.20;2.50;;;;;;;;;;6276810;28;20049;-78
2023/09/24 08:01:07;;;;;;;9.32;2.17;;;;;;;;;;6277183;28;20045;-78
2023/09/24 08:04:11;;;;;;;2.83;1.85;;;;;;;;;;6277506;28;20364;-77
2023/09/24 08:07:13;;;;;;;2.67;1.80;;;;;;;;;;6275523;28;20245;-78
2023/09/24 08:10:15;;;;;;;5.78;1.70;;;;;;;;;;6277765;28;20051;-79
2023/09/24 08:13:17;;;;;;;3.40;1.73;;;;;;;;;;6277438;28;20269;-78
2023/09/24 08:16:28;;;;;;;3.63;1.60;;;;;;;;;;6262178;28;20048;-77
2023/09/24 08:19:36;;;;;;;2.40;1.50;;;;;;;;;;6272888;28;20349;-82
2023/09/24 08:22:38;;;;;;;3.33;2.05;;;;;;;;;;6264014;28;20059;-80
2023/09/24 08:25:40;;;;;;;3.30;1.60;;;;;;;;;;6277322;28;20080;-79
2023/09/24 08:28:43;;;;;;;2.60;1.38;;;;;;;;;;6275169;28;20124;-79
2023/09/24 08:35:06;;;;;;;3.35;1.60;;;;;;;;;;6219836;28;20053;-82
2023/09/24 08:38:12;;;;;;;3.50;1.27;;;;;;;;;;6260362;28;20045;-79
2023/09/24 08:44:40;;;;;;;2.13;0.98;;;;;;;;;;6119701;28;20049;-79
2023/09/24 08:47:43;;;;;;;2.03;1.15;;;;;;;;;;6220155;28;20072;-79
2023/09/24 08:50:49;;;;;;;3.90;0.90;;;;;;;;;;6228156;28;20212;-81
2023/09/24 08:53:52;;;;;;;1.92;0.90;;;;;;;;;;6224400;28;20065;-80
2023/09/24 08:56:54;;;;;;;2.08;0.95;;;;;;;;;;6220865;28;21283;-81
2023/09/24 09:00:21;;;;;;;1.58;0.90;;;;;;;;;;6201514;28;20058;-80
2023/09/24 09:07:17;;;;;;;2.17;0.75;;;;;;;;;;6124940;28;20071;-79
2023/09/24 09:10:21;;;;;;;;;;;;;;;;;;6162742;28;20241;-80
2023/09/24 09:13:23;;;;;;;2.67;0.85;;;;;;;;;;6177648;28;19925;-79
2023/09/24 09:17:08;;;;;;;3.35;0.90;;;;;;;;;;6176052;28;20086;-81
2023/09/24 09:20:11;;;;;;;3.30;0.90;;;;;;;;;;6174905;28;20061;-80
2023/09/24 09:23:16;;;;;;;1.95;0.95;;;;;;;;;;6176697;28;20336;-80
2023/09/24 09:26:18;;;;;;;3.03;1.42;;;;;;;;;;6178971;28;20263;-81
2023/09/24 09:29:21;;;;;;;1.88;1.02;;;;;;;;;;6165590;28;20046;-79
2023/09/24 09:32:36;;;;;;;4.65;1.05;;;;;;;;;;6177218;28;20046;-79
2023/09/24 09:35:38;;;;;;;1.35;0.70;;;;;;;;;;6178079;28;20055;-79
2023/09/24 09:38:41;;;;;;;1.10;0.60;;;;;;;;;;6177412;28;20113;-79
2023/09/24 09:41:44;;;;;;;2.28;0.80;;;;;;;;;;6177100;28;20247;-79
2023/09/24 09:44:47;;;;;;;2.45;0.98;;;;;;;;;;6239297;28;20041;-79
2023/09/24 09:48:00;;;;;;;1.80;1.00;;;;;;;;;;6252429;28;20072;-78
2023/09/24 09:51:06;;;;;;;1.77;0.90;;;;;;;;;;6249712;28;20199;-78
2023/09/24 09:54:12;;;;;;;2.60;1.10;;;;;;;;;;6248514;28;20148;-77
2023/09/24 09:57:14;;;;;;;3.80;0.90;;;;;;;;;;6252232;28;20132;-77
2023/09/24 10:00:17;;;;;;;1.45;1.13;;;;;;;;;;6250016;28;20620;-78
2023/09/24 10:03:19;;;;;;;2.08;0.95;;;;;;;;;;6248658;28;20073;-78
2023/09/24 10:06:22;;;;;;;3.22;0.98;;;;;;;;;;6251992;28;20053;-77
2023/09/24 10:09:39;;;;;;;2.22;0.88;;;;;;;;;;6253795;28;20049;-77
2023/09/24 10:12:42;;;;;;;1.38;0.88;;;;;;;;;;6249955;28;20325;-77
2023/09/24 10:15:45;;;;;;;2.90;1.20;;;;;;;;;;6258508;28;20049;-78
2023/09/24 10:18:54;;;;;;;3.17;0.80;;;;;;;;;;6273980;28;20041;-79
2023/09/24 10:21:56;;;;;;;1.63;1.00;;;;;;;;;;6277821;28;20056;-81
2023/09/24 10:25:00;;;;;;;1.70;0.63;;;;;;;;;;6280679;28;20044;-79
2023/09/24 10:28:03;;;;;;;1.38;0.65;;;;;;;;;;6278479;28;20306;-82
2023/09/24 10:31:04;;;;;;;;;;;;;;;;;;6283399;28;20048;-78
2023/09/24 10:34:06;;;;;;;1.73;0.80;;;;;;;;;;6275837;28;20538;-76
2023/09/24 10:37:10;;;;;;;1.40;0.80;;;;;;;;;;6278794;28;20053;-77
2023/09/24 10:40:14;;;;;;;2.47;0.80;;;;;;;;;;6280362;28;20056;-76
2023/09/24 10:43:20;;;;;;;2.47;1.00;;;;;;;;;;6270337;28;20057;-75
2023/09/24 10:46:28;;;;;;;2.60;1.13;;;;;;;;;;6261600;28;20106;-75
2023/09/24 10:49:30;;;;;;;5.45;1.85;;;;;;;;;;6278343;28;20325;-77
2023/09/24 10:52:47;;;;;;;2.05;0.70;;;;;;;;;;6277687;28;20075;-75
2023/09/24 10:55:50;;;;;;;4.70;1.20;;;;;;;;;;6276813;28;20049;-78
2023/09/24 10:58:52;;;;;;;1.63;0.82;;;;;;;;;;6280641;28;20048;-77
2023/09/24 11:01:54;;;;;;;3.50;1.10;;;;;;;;;;6279253;28;20059;-81
2023/09/24 11:05:01;;;;;;;2.20;0.88;;;;;;;;;;6278026;28;20053;-77
2023/09/24 11:08:04;;;;;;;2.90;0.70;;;;;;;;;;6278695;28;20329;-74
2023/09/24 11:11:07;;;;;;;1.30;0.93;;;;;;;;;;6277598;28;20088;-75
2023/09/24 11:14:16;;;;;;;3.80;1.20;;;;;;;;;;6278731;28;20098;-78
2023/09/24 11:17:18;;;;;;;3.63;0.63;;;;;;;;;;6273033;28;20057;-76
2023/09/24 11:20:21;;;;;;;1.60;0.70;;;;;;;;;;6276702;28;20159;-77
2023/09/24 11:23:23;;;;;;;2.45;1.35;;;;;;;;;;6278538;28;20134;-78
2023/09/24 11:26:29;;;;;;;2.92;1.83;;;;;;;;;;6278180;28;20063;-80
2023/09/24 11:29:31;;;;;;;1.73;1.00;;;;;;;;;;6280110;28;20111;-78
2023/09/24 11:32:33;;;;;;;1.60;0.90;;;;;;;;;;6277058;28;20098;-77
2023/09/24 11:35:38;;;;;;;1.37;0.80;;;;;;;;;;6278889;28;20111;-80
2023/09/24 11:38:40;;;;;;;3.33;1.27;;;;;;;;;;6278957;28;20541;-79
2023/09/24 11:41:47;;;;;;;1.75;1.10;;;;;;;;;;6276174;28;20053;-75
2023/09/24 11:44:49;;;;;;;2.22;0.98;;;;;;;;;;6280995;28;20072;-78
2023/09/24 11:47:51;;;;;;;1.00;0.77;;;;;;;;;;6276648;28;20053;-76
2023/09/24 11:50:54;;;;;;;1.45;0.80;;;;;;;;;;6259830;28;20119;-78
2023/09/24 11:53:56;;;;;;;1.77;0.73;;;;;;;;;;6273156;28;20048;-75
2023/09/24 11:56:59;;;;;;;3.35;0.75;;;;;;;;;;6280153;28;20061;-74
2023/09/24 12:00:01;;;;;;;2.03;0.63;;;;;;;;;;6276811;28;20063;-76
2023/09/24 12:03:05;;;;;;;1.23;0.73;;;;;;;;;;6266499;28;20061;-74
2023/09/24 12:06:08;;;;;;;2.45;0.70;;;;;;;;;;6277591;28;20125;-73
2023/09/24 12:09:10;;;;;;;;;;;;;;;;;;6266270;28;20061;-75
2023/09/24 12:12:13;;;;;;;0.85;0.63;;;;;;;;;;6271289;28;20197;-74
2023/09/24 12:15:15;;;;;;;1.02;0.70;;;;;;;;;;6255126;28;20305;-75
2023/09/24 12:18:17;;;;;;;0.93;0.70;;;;;;;;;;6254168;28;20068;-75
2023/09/24 12:21:19;;;;;;;2.63;0.80;;;;;;;;;;6254796;28;20065;-76
2023/09/24 12:24:21;;;;;;;1.55;0.80;;;;;;;;;;6256045;28;20053;-76
2023/09/24 12:27:25;;;;;;;2.10;0.70;;;;;;;;;;6277251;28;20272;-75
2023/09/24 12:30:27;;;;;;;1.70;0.77;;;;;;;;;;6277296;28;20057;-77
2023/09/24 12:33:29;;;;;;;0.90;0.70;;;;;;;;;;6278647;28;20061;-77
2023/09/24 12:36:31;;;;;;;1.10;0.45;;;;;;;;;;6277960;28;20083;-76
2023/09/24 12:39:33;;;;;;;1.40;0.95;;;;;;;;;;6255154;28;20041;-76
2023/09/24 12:42:38;;;;;;;1.70;0.70;;;;;;;;;;6266418;28;20058;-76
2023/09/24 12:45:40;;;;;;;2.35;0.75;;;;;;;;;;6249238;28;20045;-76
2023/09/24 12:48:42;;;;;;;2.63;0.70;;;;;;;;;;6254390;28;20051;-75
2023/09/24 12:51:44;;;;;;;2.15;0.82;;;;;;;;;;6253297;28;20056;-76
2023/09/24 12:54:46;;;;;;;1.55;0.80;;;;;;;;;;6248658;28;20057;-76
2023/09/24 12:57:49;;;;;;;;;;;;;;;;;;6248990;28;20045;-75
2023/09/24 13:00:51;;;;;;;;;;;;;;;;;;6250765;28;19917;-75
2023/09/24 13:03:53;;;;;;;0.80;0.50;;;;;;;;;;6253420;28;19978;-75
2023/09/24 13:06:55;;;;;;;1.17;0.70;;;;;;;;;;6250189;28;20100;-78
2023/09/24 13:09:57;;;;;;;;;;;;;;;;;;6252949;28;20379;-78
2023/09/24 13:13:01;;;;;;;2.60;0.80;;;;;;;;;;6253339;28;19923;-78
2023/09/24 13:16:03;;;;;;;1.50;0.50;;;;;;;;;;6263471;28;20057;-78
2023/09/24 13:19:05;;;;;;;1.38;0.80;;;;;;;;;;6277219;28;20055;-79
2023/09/24 13:22:07;;;;;;;1.42;0.73;;;;;;;;;;6275430;28;20048;-77
2023/09/24 13:25:09;;;;;;;1.50;0.70;;;;;;;;;;6273450;28;20117;-79
2023/09/24 13:28:12;;;;;;;1.58;0.43;;;;;;;;;;6276714;28;20084;-80
2023/09/24 13:31:15;;;;;;;2.88;0.70;;;;;;;;;;6275347;28;20053;-80
2023/09/24 13:34:16;;;;;;;;;;;;;;;;;;6275625;28;20373;-80
2023/09/24 13:37:18;;;;;;;1.35;0.70;;;;;;;;;;6279423;28;20228;-79
2023/09/24 13:40:20;;;;;;;1.00;0.60;;;;;;;;;;6259020;28;20059;-79
2023/09/24 13:43:23;;;;;;;0.95;0.63;;;;;;;;;;6269171;28;20045;-80
2023/09/24 13:46:25;;;;;;;2.38;0.80;;;;;;;;;;6259638;28;20080;-80
2023/09/24 13:49:28;;;;;;;1.25;0.77;;;;;;;;;;6276920;28;20041;-80
2023/09/24 13:52:30;;;;;;;0.95;0.60;;;;;;;;;;6274526;28;20086;-79
2023/09/24 13:55:34;;;;;;;;;;;;;;;;;;6271169;28;20055;-79
2023/09/24 13:58:37;;;;;;;1.95;0.60;;;;;;;;;;6267975;28;19951;-79
2023/09/24 14:01:39;;;;;;;1.52;0.80;;;;;;;;;;6281472;28;20057;-80
2023/09/24 14:04:42;;;;;;;1.70;0.70;;;;;;;;;;6269732;28;20052;-81
2023/09/24 14:07:43;;;;;;;;;;;;;;;;;;6269748;28;20053;-80
2023/09/24 14:14:06;;;;;;;1.50;0.60;;;;;;;;;;6254679;28;20065;-79
2023/09/24 14:17:08;;;;;;;1.45;0.65;;;;;;;;;;6227534;28;20226;-78
2023/09/24 14:20:11;;;;;;;0.95;0.55;;;;;;;;;;6254753;28;20053;-79
2023/09/24 14:23:16;;;;;;;2.33;0.63;;;;;;;;;;6255755;28;20395;-78
2023/09/24 14:26:19;;;;;;;1.58;0.80;;;;;;;;;;6257143;28;20108;-78
2023/09/24 14:29:22;;;;;;;2.38;0.50;;;;;;;;;;6257547;28;20249;-78
2023/09/24 14:32:24;;;;;;;1.00;0.80;;;;;;;;;;6258830;28;20056;-78
2023/09/24 14:35:26;;;;;;;1.40;0.93;;;;;;;;;;6258861;28;20069;-78
2023/09/24 14:38:30;;;;;;;2.13;0.80;;;;;;;;;;6258819;28;20049;-77
2023/09/24 14:41:32;;;;;;;0.80;0.50;;;;;;;;;;6258106;28;20069;-78
2023/09/24 14:44:38;;;;;;;2.20;0.63;;;;;;;;;;6256932;28;20057;-79
2023/09/24 14:47:41;;;;;;;0.82;0.60;;;;;;;;;;6258238;28;20049;-79
2023/09/24 14:50:43;;;;;;;1.25;0.60;;;;;;;;;;6257012;28;20061;-79
2023/09/24 14:53:45;;;;;;;2.47;0.70;;;;;;;;;;6254615;28;20060;-79
2023/09/24 14:56:47;;;;;;;1.42;0.60;;;;;;;;;;6252987;28;20077;-80
2023/09/24 14:59:52;;;;;;;2.35;0.80;;;;;;;;;;6249450;28;20064;-79
2023/09/24 15:02:55;;;;;;;2.00;0.70;;;;;;;;;;6254218;28;20057;-79
2023/09/24 15:05:58;;;;;;;1.75;0.60;;;;;;;;;;6256807;28;20253;-79
2023/09/24 15:09:06;;;;;;;0.82;0.60;;;;;;;;;;6255492;28;20057;-79
2023/09/24 15:12:09;;;;;;;1.10;0.63;;;;;;;;;;6254814;28;20057;-78
2023/09/24 15:15:12;;;;;;;1.02;0.50;;;;;;;;;;6256209;28;20069;-79
2023/09/24 15:18:15;;;;;;;1.00;0.50;;;;;;;;;;6254095;28;20338;-78
2023/09/24 15:21:17;;;;;;;0.90;0.65;;;;;;;;;;6252735;28;20045;-78
2023/09/24 15:24:19;;;;;;;1.38;0.70;;;;;;;;;;6256791;28;20068;-79
2023/09/24 15:27:22;;;;;;;1.00;0.60;;;;;;;;;;6256123;28;20053;-79
2023/09/24 15:30:25;;;;;;;1.90;0.55;;;;;;;;;;6252171;28;20053;-80
2023/09/24 15:33:27;;;;;;;0.65;0.45;;;;;;;;;;6261214;28;20096;-78
2023/09/24 15:36:29;;;;;;;2.65;0.50;;;;;;;;;;6257268;28;20112;-79
2023/09/24 15:39:32;;;;;;;1.73;0.60;;;;;;;;;;6252751;28;20253;-80
2023/09/24 15:42:35;;;;;;;1.48;0.70;;;;;;;;;;6254929;28;20067;-80
2023/09/24 15:45:56;;;;;;;1.10;0.50;;;;;;;;;;6253588;28;20723;-80
2023/09/24 15:49:01;;;;;;;1.05;0.68;;;;;;;;;;6249105;28;20218;-79
2023/09/24 15:52:03;;;;;;;1.50;0.80;;;;;;;;;;6246986;28;20057;-79
2023/09/24 15:55:05;;;;;;;;;;;;;;;;;;6238071;28;20057;-81
2023/09/24 15:58:07;;;;;;;1.00;0.50;;;;;;;;;;6272449;28;20212;-78
2023/09/24 16:01:10;;;;;;;2.05;0.50;;;;;;;;;;6279437;28;20095;-79
2023/09/24 16:04:12;;;;;;;0.65;0.60;;;;;;;;;;6275487;28;20061;-78
2023/09/24 16:07:14;;;;;;;3.10;0.55;;;;;;;;;;6275686;28;20086;-78
2023/09/24 16:10:16;;;;;;;0.88;0.50;;;;;;;;;;6278305;28;20087;-77
2023/09/24 16:13:20;;;;;;;0.73;0.47;;;;;;;;;;6277549;28;20061;-77
2023/09/24 16:16:23;;;;;;;1.63;0.98;;;;;;;;;;6252570;28;20053;-78
2023/09/24 16:19:26;;;;;;;1.98;0.80;;;;;;;;;;6252653;28;20120;-77
2023/09/24 16:22:28;;;;;;;1.08;0.60;;;;;;;;;;6254830;28;20080;-77
2023/09/24 16:25:31;;;;;;;1.67;0.80;;;;;;;;;;6252606;28;20053;-78
2023/09/24 16:28:34;;;;;;;2.58;0.50;;;;;;;;;;6253655;28;20069;-78
2023/09/24 16:31:38;;;;;;;1.35;0.50;;;;;;;;;;6251735;28;20054;-77
2023/09/24 16:34:40;;;;;;;1.13;0.60;;;;;;;;;;6253896;28;20060;-77
2023/09/24 16:37:44;;;;;;;1.35;0.70;;;;;;;;;;6250233;28;20241;-77
2023/09/24 16:40:55;;;;;;;1.30;0.70;;;;;;;;;;6250664;28;20049;-77
2023/09/24 16:43:57;;;;;;;0.98;0.40;;;;;;;;;;6251260;28;20297;-77
2023/09/24 16:47:01;;;;;;;1.75;0.75;;;;;;;;;;6250890;28;20053;-77
2023/09/24 16:50:03;;;;;;;1.25;0.63;;;;;;;;;;6250990;28;20092;-77
2023/09/24 16:53:04;;;;;;;4.13;0.60;;;;;;;;;;6252069;28;20061;-78
2023/09/24 16:56:06;;;;;;;0.73;0.50;;;;;;;;;;6253021;28;20117;-78
2023/09/24 16:59:08;;;;;;;1.83;0.75;;;;;;;;;;6247910;28;20380;-78
2023/09/24 17:02:12;;;;;;;1.58;0.70;;;;;;;;;;6265250;28;20108;-78
2023/09/24 17:05:13;;;;;;;2.03;1.00;;;;;;;;;;6277267;28;20056;-78
2023/09/24 17:08:15;;;;;;;2.17;0.88;;;;;;;;;;6278131;28;20114;-78
2023/09/24 17:11:17;;;;;;;0.80;0.57;;;;;;;;;;6279888;28;20053;-77
2023/09/24 17:14:19;;;;;;;5.90;0.70;;;;;;;;;;6259952;28;20052;-77
2023/09/24 17:17:22;;;;;;;1.30;0.67;;;;;;;;;;6252005;28;20045;-77
2023/09/24 17:20:25;;;;;;;1.73;0.80;;;;;;;;;;6253705;28;20060;-77
2023/09/24 17:23:26;;;;;;;1.25;0.65;;;;;;;;;;6253330;28;20257;-79
2023/09/24 17:26:28;;;;;;;2.70;1.58;;;;;;;;;;6253683;28;20068;-78
2023/09/24 17:29:30;;;;;;;3.88;1.23;;;;;;;;;;6252437;28;20057;-78
2023/09/24 17:32:33;;;;;;;1.85;1.00;;;;;;;;;;6271247;28;20069;-80
2023/09/24 17:35:36;;;;;;;4.50;1.38;;;;;;;;;;6275775;28;20375;-78
2023/09/24 17:38:38;;;;;;;3.25;1.45;;;;;;;;;;6275292;28;20072;-77
2023/09/24 17:41:39;;;;;;;2.35;1.13;;;;;;;;;;6276788;28;20045;-78
2023/09/24 17:44:41;;;;;;;2.30;1.40;;;;;;;;;;6274609;28;20053;-77
2023/09/24 17:47:47;;;;;;;3.15;1.70;;;;;;;;;;6275505;28;20244;-77
2023/09/24 17:50:49;;;;;;;2.55;1.40;;;;;;;;;;6275883;28;20052;-77
2023/09/24 17:53:50;;;;;;;3.55;2.10;;;;;;;;;;6276792;28;20333;-77
2023/09/24 17:56:52;;;;;;;6.53;2.80;;;;;;;;;;6278220;28;20049;-79
2023/09/24 17:59:54;;;;;;;4.68;2.40;;;;;;;;;;6276928;28;20052;-77
2023/09/24 18:02:57;;;;;;;4.53;2.30;;;;;;;;;;6275135;28;20055;-77
2023/09/24 18:05:59;;;;;;;;;;;;;;;;;;6273455;28;20057;-77
2023/09/24 18:09:02;;;;;;;5.07;1.90;;;;;;;;;;6265440;28;19928;-80
2023/09/24 18:12:05;;;;;;;5.93;2.40;;;;;;;;;;6253833;28;20045;-78
2023/09/24 18:15:08;;;;;;;5.93;2.28;;;;;;;;;;6250473;28;20050;-77
2023/09/24 18:18:11;;;;;;;7.03;2.55;;;;;;;;;;6266415;28;20049;-77
2023/09/24 18:21:18;;;;;;;;;;;;;;;;;;6248563;28;20061;-77
2023/09/24 18:24:19;;;;;;;7.40;2.80;;;;;;;;;;6276061;28;19925;-77
2023/09/24 18:27:21;;;;;;;4.82;2.05;;;;;;;;;;6277165;28;20053;-79
2023/09/24 18:30:23;;;;;;;6.18;2.20;;;;;;;;;;6275908;28;20114;-79
2023/09/24 18:33:26;;;;;;;8.23;2.35;;;;;;;;;;6276129;28;20056;-83
2023/09/24 18:36:28;;;;;;;5.72;2.22;;;;;;;;;;6275095;28;20085;-82
2023/09/24 18:39:30;;;;;;;6.30;2.83;;;;;;;;;;6277349;28;20057;-80
2023/09/24 18:42:33;;;;;;;8.75;5.28;;;;;;;;;;6280857;28;20073;-79
2023/09/24 18:45:36;;;;;;;9.15;4.90;;;;;;;;;;6279861;28;20383;-79
2023/09/24 18:48:39;;;;;;;11.35;5.65;;;;;;;;;;6279611;28;20049;-78
2023/09/24 18:51:41;;;;;;;;;;;;;;;;;;6255975;28;20415;-84
2023/09/24 18:57:59;;;;;;;5.90;3.25;;;;;;;;;;6253706;28;20061;-86
2023/09/24 19:01:07;;;;;;;10.70;4.50;;;;;;;;;;6258493;28;20100;-85
2023/09/24 19:04:13;;;;;;;7.80;3.63;;;;;;;;;;6258001;28;20075;-86
2023/09/24 19:07:15;;;;;;;9.88;4.00;;;;;;;;;;6257903;28;20069;-84
2023/09/24 19:10:21;;;;;;;11.50;4.40;;;;;;;;;;6256145;28;20046;-82
2023/09/24 19:13:28;;;;;;;10.38;4.18;;;;;;;;;;6256029;28;20337;-81
2023/09/24 19:16:30;;;;;;;8.77;4.18;;;;;;;;;;6245564;28;20037;-79
2023/09/24 19:19:34;;;;;;;11.07;4.32;;;;;;;;;;6254323;28;20282;-80
2023/09/24 19:26:15;;;;;;;8.40;4.53;;;;;;;;;;6232768;28;20045;-80
2023/09/24 19:29:17;;;;;;;8.93;4.57;;;;;;;;;;6258243;28;20277;-81
2023/09/24 19:32:20;;;;;;;11.27;5.20;;;;;;;;;;6259002;28;20342;-79
2023/09/24 19:35:23;;;;;;;8.32;4.32;;;;;;;;;;6256714;28;20072;-79
2023/09/24 19:38:25;;;;;;;6.57;4.40;;;;;;;;;;6257346;28;20264;-79
2023/09/24 19:41:27;;;;;;;10.27;4.68;;;;;;;;;;6252811;28;20125;-85
2023/09/24 19:44:29;;;;;;;8.30;4.68;;;;;;;;;;6250414;28;20468;-79
2023/09/24 19:47:33;;;;;;;7.97;4.07;;;;;;;;;;6256020;28;20326;-79
2023/09/24 19:50:38;;;;;;;;;;;;;;;;;;6257132;28;20452;-79
2023/09/24 19:53:41;;;;;;;9.02;4.75;;;;;;;;;;6255836;28;19928;-80
2023/09/24 19:56:43;;;;;;;10.95;5.10;;;;;;;;;;6254261;28;20349;-81
2023/09/24 19:59:45;;;;;;;10.85;5.30;;;;;;;;;;6255759;28;20073;-81
2023/09/24 20:02:47;;;;;;;9.88;6.15;;;;;;;;;;6255414;28;20133;-79
2023/09/24 20:05:51;;;;;;;12.95;5.68;;;;;;;;;;6257446;28;20077;-79
2023/09/24 20:08:54;;;;;;;8.85;4.80;;;;;;;;;;6255633;28;20061;-83
2023/09/24 20:11:56;;;;;;;13.27;5.20;;;;;;;;;;6255052;28;20061;-81
2023/09/24 20:14:59;;;;;;;12.00;5.32;;;;;;;;;;6248335;28;20107;-81